Time;durP1;ratioP1;P1;durP2;ratioP2;P2;SDS_P1;SDS_P2;PMS_P1;PMS_P2;Temp;Humidity;BMP_temperature;BMP_pressure;BME280_temperature;BME280_humidity;BME280_pressure;Samples;Min_cycle;Max_cycle;Signal;HPM_P1;HPM_P2
2021/04/08 00:02:09;;;;;;;17.13;10.82;;;1.10;94.90;;;;;;5055726;28;20052;-88
2021/04/08 00:04:35;;;;;;;18.45;10.48;;;1.10;95.00;;;;;;5055930;28;20021;-88
2021/04/08 00:07:01;;;;;;;20.45;12.13;;;1.00;94.90;;;;;;5056023;28;20056;-89
2021/04/08 00:09:27;;;;;;;22.58;11.55;;;1.00;94.90;;;;;;5055938;28;20060;-89
2021/04/08 00:11:57;;;;;;;18.90;10.65;;;1.00;94.90;;;;;;5055451;28;20057;-88
2021/04/08 00:14:24;;;;;;;19.30;9.85;;;1.00;95.00;;;;;;5056489;28;20487;-96
2021/04/08 00:16:50;;;;;;;22.17;9.98;;;1.00;94.90;;;;;;5058022;28;20021;-93
2021/04/08 00:19:17;;;;;;;19.48;11.27;;;1.00;94.90;;;;;;5055654;28;20040;-92
2021/04/08 00:21:42;;;;;;;19.13;10.85;;;1.00;94.80;;;;;;5055656;28;20513;-83
2021/04/08 00:24:08;;;;;;;22.88;12.55;;;1.00;94.90;;;;;;5055666;28;20029;-92
2021/04/08 00:26:34;;;;;;;25.35;14.15;;;0.90;94.90;;;;;;5056134;28;20029;-86
2021/04/08 00:29:00;;;;;;;22.55;12.90;;;0.90;95.00;;;;;;5055693;28;20021;-88
2021/04/08 00:31:25;;;;;;;20.75;11.82;;;0.90;95.00;;;;;;5055628;28;20032;-90
2021/04/08 00:33:51;;;;;;;19.17;11.43;;;0.90;94.90;;;;;;5058254;28;20044;-85
2021/04/08 00:36:17;;;;;;;18.85;11.00;;;0.90;95.00;;;;;;5061885;28;20024;-95
2021/04/08 00:38:43;;;;;;;22.77;11.55;;;0.90;95.10;;;;;;5057263;28;20025;-93
2021/04/08 00:41:09;;;;;;;18.52;10.82;;;0.80;95.20;;;;;;5055609;28;20036;-92
2021/04/08 00:43:34;;;;;;;22.02;11.32;;;0.80;95.10;;;;;;5055067;28;20501;-92
2021/04/08 00:46:00;;;;;;;25.88;13.05;;;0.80;95.20;;;;;;5055589;28;20021;-90
2021/04/08 00:48:26;;;;;;;24.45;12.70;;;0.70;95.20;;;;;;5055818;28;20028;-87
2021/04/08 00:50:51;;;;;;;35.05;13.60;;;0.70;95.20;;;;;;5055355;28;20424;-87
2021/04/08 00:53:23;;;;;;;25.35;12.52;;;0.70;95.20;;;;;;5055362;28;20025;-87
2021/04/08 00:55:53;;;;;;;28.02;14.70;;;0.70;95.20;;;;;;5056396;28;20074;-87
2021/04/08 00:58:19;;;;;;;21.25;13.02;;;0.70;95.20;;;;;;5055160;28;20024;-86
2021/04/08 01:00:46;;;;;;;20.20;11.02;;;0.70;95.30;;;;;;5055027;28;20032;-87
2021/04/08 01:03:14;;;;;;;20.15;9.82;;;0.70;95.30;;;;;;5054629;28;20045;-86
2021/04/08 01:05:40;;;;;;;18.13;10.68;;;0.70;95.30;;;;;;5055094;28;20383;-87
2021/04/08 01:08:06;;;;;;;21.70;11.23;;;0.60;95.40;;;;;;5055075;28;20024;-87
2021/04/08 01:10:35;;;;;;;21.70;11.63;;;0.60;95.40;;;;;;5057511;28;20529;-96
2021/04/08 01:13:05;;;;;;;21.77;12.63;;;0.70;95.30;;;;;;5067813;28;20033;-96
2021/04/08 01:15:31;;;;;;;24.45;11.80;;;0.60;95.30;;;;;;5056513;28;20029;-96
2021/04/08 01:18:01;;;;;;;19.73;11.20;;;0.60;95.50;;;;;;5055386;28;20032;-96
2021/04/08 01:20:55;;;;;;;20.15;10.68;;;0.60;95.50;;;;;;5055263;28;20074;-95
2021/04/08 01:23:48;;;;;;;22.67;11.73;;;0.60;95.50;;;;;;5055656;28;20119;-96
2021/04/08 01:26:35;;;;;;;20.25;10.98;;;0.60;95.50;;;;;;5058239;28;20036;-96
2021/04/08 01:29:10;;;;;;;16.60;9.65;;;0.60;95.70;;;;;;5055504;28;20028;-93
2021/04/08 01:31:38;;;;;;;19.58;10.50;;;0.60;95.50;;;;;;5055248;28;20021;-96
2021/04/08 01:34:11;;;;;;;24.13;11.10;;;0.60;95.40;;;;;;5056246;28;20040;-94
2021/04/08 01:36:41;;;;;;;21.02;10.77;;;0.70;95.30;;;;;;5055318;28;20059;-96
2021/04/08 01:39:10;;;;;;;19.60;10.68;;;0.60;95.30;;;;;;5054814;28;20063;-96
2021/04/08 01:41:42;;;;;;;21.67;11.00;;;0.60;95.30;;;;;;5054597;28;20028;-94
2021/04/08 01:44:14;;;;;;;17.02;10.15;;;0.60;95.40;;;;;;5053787;28;20052;-92
2021/04/08 01:46:45;;;;;;;20.90;10.27;;;0.50;95.40;;;;;;5055900;28;20013;-93
2021/04/08 01:49:15;;;;;;;15.35;9.30;;;0.50;95.50;;;;;;5055250;28;20021;-93
2021/04/08 01:51:41;;;;;;;15.82;9.07;;;0.50;95.40;;;;;;5054771;28;20479;-93
2021/04/08 01:54:08;;;;;;;19.35;10.55;;;0.60;95.40;;;;;;5054277;28;20036;-93
2021/04/08 01:56:36;;;;;;;17.60;9.43;;;0.60;95.30;;;;;;5054575;28;20143;-93
2021/04/08 01:59:04;;;;;;;16.48;9.95;;;0.60;95.30;;;;;;5054314;28;20078;-94
2021/04/08 02:01:29;;;;;;;19.20;10.07;;;0.60;95.20;;;;;;5054541;28;20029;-93
2021/04/08 02:03:57;;;;;;;17.33;9.93;;;0.60;95.20;;;;;;5054074;28;20045;-94
2021/04/08 02:06:28;;;;;;;17.60;10.05;;;0.60;95.20;;;;;;5054380;28;20376;-93
2021/04/08 02:08:55;;;;;;;22.30;10.60;;;0.60;95.10;;;;;;5054311;28;20021;-93
2021/04/08 02:11:24;;;;;;;16.27;9.27;;;0.60;95.10;;;;;;5053978;28;20024;-92
2021/04/08 02:13:50;;;;;;;16.83;9.48;;;0.60;95.00;;;;;;5053442;28;20021;-90
2021/04/08 02:16:20;;;;;;;15.07;9.60;;;0.60;95.10;;;;;;5054028;28;20029;-89
2021/04/08 02:18:48;;;;;;;17.13;9.90;;;0.50;95.20;;;;;;5053604;28;20056;-89
2021/04/08 02:21:15;;;;;;;20.40;9.30;;;0.60;95.20;;;;;;5061009;28;20138;-89
2021/04/08 02:23:44;;;;;;;16.40;9.23;;;0.60;95.10;;;;;;5057468;28;20025;-89
2021/04/08 02:26:13;;;;;;;13.45;8.27;;;0.50;95.10;;;;;;5053667;28;20028;-90
2021/04/08 02:28:40;;;;;;;19.73;10.00;;;0.60;95.20;;;;;;5054759;28;20029;-88
2021/04/08 02:31:07;;;;;;;13.20;7.85;;;0.50;95.00;;;;;;5053440;28;20453;-90
2021/04/08 02:33:33;;;;;;;15.88;9.00;;;0.50;95.20;;;;;;5053628;28;20102;-91
2021/04/08 02:36:00;;;;;;;19.50;9.63;;;0.50;95.10;;;;;;5053734;28;20032;-92
2021/04/08 02:38:28;;;;;;;15.68;8.48;;;0.50;95.10;;;;;;5054404;28;20040;-91
2021/04/08 02:40:57;;;;;;;18.25;10.10;;;0.50;95.20;;;;;;5053079;28;20056;-91
2021/04/08 02:43:22;;;;;;;18.45;9.93;;;0.50;95.10;;;;;;5052496;28;20033;-91
2021/04/08 02:45:49;;;;;;;17.58;10.45;;;0.50;95.10;;;;;;5037368;28;20023;-90
2021/04/08 02:48:17;;;;;;;24.60;12.88;;;0.50;95.20;;;;;;5050342;28;20029;-89
2021/04/08 02:50:44;;;;;;;22.77;11.70;;;0.50;95.10;;;;;;5052154;28;20079;-91
2021/04/08 02:53:20;;;;;;;24.70;12.20;;;0.50;95.20;;;;;;5053370;28;20062;-86
2021/04/08 02:56:14;;;;;;;25.67;11.70;;;0.50;95.20;;;;;;5052401;28;20032;-86
2021/04/08 02:58:42;;;;;;;22.52;11.77;;;0.50;95.20;;;;;;5053558;28;20032;-86
2021/04/08 03:01:11;;;;;;;21.23;11.05;;;0.50;95.20;;;;;;5052387;28;20033;-85
2021/04/08 03:04:01;;;;;;;16.33;9.93;;;0.50;95.20;;;;;;5052127;28;20049;-85
2021/04/08 03:06:28;;;;;;;16.60;10.73;;;0.50;95.20;;;;;;5053428;28;20038;-86
2021/04/08 03:08:55;;;;;;;21.45;11.95;;;0.40;95.30;;;;;;5052682;28;20043;-86
2021/04/08 03:11:29;;;;;;;17.30;10.77;;;0.50;95.30;;;;;;5053023;28;20063;-85
2021/04/08 03:14:05;;;;;;;17.83;11.07;;;0.40;95.30;;;;;;5052634;28;20120;-86
2021/04/08 03:16:39;;;;;;;15.48;9.77;;;0.40;95.30;;;;;;5053864;28;20052;-86
2021/04/08 03:19:07;;;;;;;15.18;10.68;;;0.40;95.40;;;;;;5051908;28;20505;-86
2021/04/08 03:21:33;;;;;;;21.20;10.82;;;0.40;95.40;;;;;;5052246;28;20412;-85
2021/04/08 03:24:01;;;;;;;15.18;10.43;;;0.40;95.30;;;;;;5054059;28;20024;-85
2021/04/08 03:26:29;;;;;;;23.38;10.57;;;0.40;95.30;;;;;;5055846;28;20017;-85
2021/04/08 03:28:56;;;;;;;19.08;10.32;;;0.40;95.20;;;;;;5055922;28;20124;-85
2021/04/08 03:31:22;;;;;;;23.80;11.82;;;0.50;95.20;;;;;;5054934;28;20071;-84
2021/04/08 03:33:50;;;;;;;23.45;11.75;;;0.50;95.10;;;;;;5055574;28;20029;-84
2021/04/08 03:36:17;;;;;;;20.60;11.48;;;0.40;95.10;;;;;;5055696;28;20021;-85
2021/04/08 03:38:43;;;;;;;20.02;11.60;;;0.50;95.20;;;;;;5054972;28;20505;-84
2021/04/08 03:41:10;;;;;;;24.27;12.70;;;0.40;95.20;;;;;;5055405;28;20025;-84
2021/04/08 03:43:37;;;;;;;25.33;13.20;;;0.40;95.20;;;;;;5054702;28;20359;-90
2021/04/08 03:46:05;;;;;;;32.17;15.70;;;0.50;95.20;;;;;;5056161;28;20475;-88
2021/04/08 03:48:32;;;;;;;32.88;15.43;;;0.50;95.20;;;;;;5056446;28;20028;-89
2021/04/08 03:50:59;;;;;;;26.92;14.45;;;0.50;95.20;;;;;;5056804;28;20382;-85
2021/04/08 03:53:25;;;;;;;20.83;12.02;;;0.50;95.20;;;;;;5055367;28;20039;-85
2021/04/08 03:55:52;;;;;;;27.85;13.57;;;0.50;95.20;;;;;;5055289;28;20025;-84
2021/04/08 03:58:18;;;;;;;18.40;12.38;;;0.50;95.20;;;;;;5054562;28;20487;-85
2021/04/08 04:00:44;;;;;;;17.30;10.90;;;0.50;95.20;;;;;;5055033;28;20033;-82
2021/04/08 04:03:12;;;;;;;19.00;10.68;;;0.50;95.20;;;;;;5054424;28;20056;-81
2021/04/08 04:05:39;;;;;;;21.05;11.93;;;0.60;95.30;;;;;;5055067;28;20352;-82
2021/04/08 04:08:06;;;;;;;17.67;11.30;;;0.60;95.30;;;;;;5056044;28;20100;-82
2021/04/08 04:10:35;;;;;;;19.85;12.18;;;0.70;95.20;;;;;;5054543;28;20078;-81
2021/04/08 04:13:02;;;;;;;23.27;13.23;;;0.70;95.00;;;;;;5054626;28;20032;-80
2021/04/08 04:15:29;;;;;;;21.85;12.57;;;0.80;94.90;;;;;;5054583;28;20441;-81
2021/04/08 04:17:54;;;;;;;23.48;13.35;;;0.80;95.00;;;;;;5054299;28;20032;-81
2021/04/08 04:20:20;;;;;;;23.23;12.43;;;0.80;94.90;;;;;;5054552;28;20029;-81
2021/04/08 04:22:46;;;;;;;18.95;11.40;;;0.90;94.90;;;;;;5054231;28;20052;-79
2021/04/08 04:25:13;;;;;;;19.17;11.38;;;0.90;94.80;;;;;;5054558;28;20021;-79
2021/04/08 04:27:39;;;;;;;20.10;11.65;;;0.90;94.70;;;;;;5054567;28;20025;-77
2021/04/08 04:30:07;;;;;;;19.52;11.63;;;1.00;94.60;;;;;;5053742;28;20029;-82
2021/04/08 04:32:33;;;;;;;20.98;11.57;;;1.10;94.50;;;;;;5054211;28;20075;-77
2021/04/08 04:34:59;;;;;;;24.65;11.95;;;1.10;94.40;;;;;;5053847;28;20025;-77
2021/04/08 04:37:25;;;;;;;25.23;13.52;;;1.20;94.40;;;;;;5055118;28;20036;-78
2021/04/08 04:39:50;;;;;;;28.95;16.15;;;1.20;94.40;;;;;;5054393;28;20115;-88
2021/04/08 04:42:16;;;;;;;24.02;13.93;;;1.20;94.40;;;;;;5060114;28;20024;-88
2021/04/08 04:44:42;;;;;;;27.80;13.82;;;1.30;94.40;;;;;;5054597;28;20036;-89
2021/04/08 04:47:08;;;;;;;23.80;12.68;;;1.30;94.30;;;;;;5054947;28;20027;-88
2021/04/08 04:49:33;;;;;;;25.77;13.52;;;1.40;94.30;;;;;;5056228;28;20467;-89
2021/04/08 04:51:59;;;;;;;18.13;11.93;;;1.50;94.00;;;;;;5053453;28;20132;-84
2021/04/08 04:54:25;;;;;;;19.98;12.25;;;1.50;93.90;;;;;;5054359;28;20044;-84
2021/04/08 04:56:51;;;;;;;22.95;12.95;;;1.50;94.10;;;;;;5053974;28;20021;-83
2021/04/08 04:59:17;;;;;;;21.95;12.90;;;1.50;94.10;;;;;;5054191;28;20025;-84
2021/04/08 05:01:42;;;;;;;21.63;13.35;;;1.60;94.20;;;;;;5053393;28;20048;-75
2021/04/08 05:04:08;;;;;;;30.25;15.88;;;1.70;94.20;;;;;;5054515;28;20138;-75
2021/04/08 05:06:34;;;;;;;39.03;20.35;;;1.70;94.00;;;;;;5053675;28;20025;-77
2021/04/08 05:09:00;;;;;;;21.65;14.30;;;1.80;94.00;;;;;;5053127;28;20464;-78
2021/04/08 05:11:27;;;;;;;23.73;14.20;;;1.80;93.90;;;;;;5054456;28;20092;-81
2021/04/08 05:13:53;;;;;;;21.30;13.15;;;1.90;93.80;;;;;;5052845;28;20463;-80
2021/04/08 05:16:18;;;;;;;27.40;13.90;;;1.90;93.60;;;;;;5051873;28;20112;-81
2021/04/08 05:18:44;;;;;;;20.83;12.88;;;2.00;93.50;;;;;;5052204;28;20021;-81
2021/04/08 05:21:10;;;;;;;19.02;12.60;;;2.10;93.40;;;;;;5052002;28;20056;-81
2021/04/08 05:23:36;;;;;;;19.35;12.18;;;2.10;93.50;;;;;;5053553;28;20028;-82
2021/04/08 05:26:02;;;;;;;19.33;12.25;;;2.20;93.50;;;;;;5055392;28;20024;-82
2021/04/08 05:28:28;;;;;;;20.85;12.60;;;2.30;93.40;;;;;;5055210;28;20021;-81
2021/04/08 05:30:53;;;;;;;22.17;12.77;;;2.40;93.10;;;;;;5054093;28;20474;-81
2021/04/08 05:33:19;;;;;;;21.20;12.88;;;2.40;92.90;;;;;;5055116;28;20146;-81
2021/04/08 05:35:45;;;;;;;21.85;12.98;;;2.50;92.90;;;;;;5053795;28;20035;-81
2021/04/08 05:38:11;;;;;;;27.05;15.70;;;2.60;92.90;;;;;;5053957;28;20032;-81
2021/04/08 05:40:37;;;;;;;27.38;16.25;;;2.70;92.60;;;;;;5053802;28;20428;-81
2021/04/08 05:43:02;;;;;;;26.58;15.35;;;2.70;92.20;;;;;;5053714;28;20033;-81
2021/04/08 05:45:30;;;;;;;22.70;14.77;;;2.80;92.50;;;;;;5053919;28;20021;-82
2021/04/08 05:47:56;;;;;;;26.10;16.27;;;2.90;92.30;;;;;;5052645;28;20029;-81
2021/04/08 05:50:22;;;;;;;22.50;14.48;;;3.00;92.20;;;;;;5053646;28;20028;-81
2021/04/08 05:52:47;;;;;;;22.05;13.68;;;3.10;92.00;;;;;;5053609;28;20067;-81
2021/04/08 05:55:13;;;;;;;23.23;14.75;;;3.20;91.80;;;;;;5053661;28;20387;-81
2021/04/08 05:57:39;;;;;;;18.88;13.32;;;3.20;91.70;;;;;;5053555;28;20025;-81
2021/04/08 06:00:09;;;;;;;27.33;14.55;;;3.30;91.20;;;;;;5053387;28;20422;-81
2021/04/08 06:02:34;;;;;;;22.70;14.80;;;3.30;90.80;;;;;;5053136;28;20060;-81
2021/04/08 06:05:00;;;;;;;22.70;13.82;;;3.40;90.90;;;;;;5054162;28;20479;-80
2021/04/08 06:07:26;;;;;;;21.13;13.30;;;3.40;90.60;;;;;;5053547;28;20462;-80
2021/04/08 06:09:52;;;;;;;17.38;11.68;;;3.50;90.90;;;;;;5054712;28;20025;-81
2021/04/08 06:12:19;;;;;;;16.63;10.35;;;3.60;90.60;;;;;;5053176;28;20052;-81
2021/04/08 06:14:47;;;;;;;17.23;10.55;;;3.60;90.20;;;;;;5052995;28;20486;-80
2021/04/08 06:17:14;;;;;;;14.65;10.10;;;3.70;90.10;;;;;;5053224;28;20029;-81
2021/04/08 06:19:39;;;;;;;15.80;10.68;;;3.80;90.30;;;;;;5053000;28;20055;-81
2021/04/08 06:22:05;;;;;;;14.88;10.38;;;3.90;89.70;;;;;;5053098;28;20060;-81
2021/04/08 06:24:31;;;;;;;13.80;9.60;;;4.00;89.40;;;;;;5052562;28;20029;-80
2021/04/08 06:26:57;;;;;;;16.90;11.18;;;4.10;88.30;;;;;;5050977;28;20017;-81
2021/04/08 06:29:22;;;;;;;16.25;10.35;;;4.20;88.00;;;;;;5052215;28;20032;-81
2021/04/08 06:31:49;;;;;;;18.33;10.02;;;4.30;87.70;;;;;;5050923;28;20021;-79
2021/04/08 06:34:15;;;;;;;14.75;9.63;;;4.30;86.60;;;;;;5050929;28;20175;-80
2021/04/08 06:36:40;;;;;;;15.38;10.27;;;4.40;85.20;;;;;;5051295;28;20116;-78
2021/04/08 06:39:06;;;;;;;18.90;10.70;;;4.40;84.10;;;;;;5050916;28;20377;-79
2021/04/08 06:41:36;;;;;;;17.05;12.20;;;4.50;85.10;;;;;;5051152;28;20379;-79
2021/04/08 06:44:03;;;;;;;15.38;9.60;;;4.50;85.00;;;;;;5050712;28;20044;-79
2021/04/08 06:46:51;;;;;;;15.63;10.27;;;4.60;85.30;;;;;;5050904;28;20029;-79
2021/04/08 06:49:34;;;;;;;16.27;9.40;;;4.70;84.80;;;;;;5050328;28;20029;-80
2021/04/08 06:52:00;;;;;;;14.25;9.48;;;4.70;84.40;;;;;;5050562;28;20387;-80
2021/04/08 06:54:27;;;;;;;15.45;9.00;;;4.80;85.00;;;;;;5050746;28;20021;-79
2021/04/08 06:56:53;;;;;;;14.68;9.60;;;4.90;84.20;;;;;;5050749;28;20490;-80
2021/04/08 06:59:19;;;;;;;14.60;8.77;;;4.90;83.00;;;;;;5051693;28;20118;-79
2021/04/08 07:01:45;;;;;;;12.95;7.97;;;4.90;83.40;;;;;;5050428;28;20502;-80
2021/04/08 07:04:13;;;;;;;12.73;8.90;;;5.00;82.60;;;;;;5051833;28;20024;-79
2021/04/08 07:06:39;;;;;;;15.68;10.40;;;5.00;83.00;;;;;;5050485;28;20017;-79
2021/04/08 07:09:09;;;;;;;17.00;9.30;;;5.10;82.20;;;;;;5051918;28;20024;-79
2021/04/08 07:11:36;;;;;;;21.77;15.18;;;5.20;82.60;;;;;;5050931;28;20029;-80
2021/04/08 07:14:03;;;;;;;25.02;14.40;;;5.30;79.80;;;;;;5050931;28;20029;-80
2021/04/08 07:16:32;;;;;;;14.95;9.43;;;5.30;79.50;;;;;;5050385;28;20036;-80
2021/04/08 07:18:58;;;;;;;15.57;8.98;;;5.40;80.90;;;;;;5050528;28;20025;-78
2021/04/08 07:21:36;;;;;;;13.20;9.10;;;5.50;77.50;;;;;;5050469;28;20032;-80
2021/04/08 07:24:19;;;;;;;14.73;10.27;;;5.60;77.80;;;;;;5051855;28;20053;-80
2021/04/08 07:27:03;;;;;;;11.00;8.43;;;5.60;77.70;;;;;;5053628;28;20032;-79
2021/04/08 07:29:38;;;;;;;13.60;8.77;;;5.70;75.40;;;;;;5052348;28;20104;-80
2021/04/08 07:32:16;;;;;;;11.68;7.90;;;5.70;74.70;;;;;;5052023;28;20028;-80
2021/04/08 07:34:47;;;;;;;12.30;8.57;;;5.70;74.80;;;;;;5052196;28;20032;-81
2021/04/08 07:37:14;;;;;;;12.48;7.72;;;5.80;73.80;;;;;;5053698;28;20045;-80
2021/04/08 07:39:45;;;;;;;13.27;7.10;;;5.80;73.90;;;;;;5052178;28;20028;-80
2021/04/08 07:42:16;;;;;;;10.98;7.05;;;5.90;73.10;;;;;;5051873;28;20025;-80
2021/04/08 07:44:57;;;;;;;12.32;7.65;;;6.00;72.80;;;;;;5052113;28;20072;-80
2021/04/08 07:47:26;;;;;;;10.90;7.07;;;6.00;73.00;;;;;;5053409;28;20021;-80
2021/04/08 07:50:10;;;;;;;13.07;8.25;;;6.00;74.10;;;;;;5053438;28;20033;-80
2021/04/08 07:52:46;;;;;;;12.07;8.88;;;6.00;75.40;;;;;;5053273;28;20386;-80
2021/04/08 07:55:17;;;;;;;10.52;7.53;;;6.10;75.50;;;;;;5051785;28;20115;-81
2021/04/08 07:58:00;;;;;;;9.57;7.18;;;6.30;75.20;;;;;;5051941;28;20092;-81
2021/04/08 08:00:30;;;;;;;12.10;7.35;;;6.50;72.00;;;;;;5053140;28;20463;-81
2021/04/08 08:03:01;;;;;;;9.05;6.60;;;6.50;70.00;;;;;;5052691;28;20053;-80
2021/04/08 08:05:28;;;;;;;8.35;6.30;;;6.60;70.60;;;;;;5053024;28;20494;-80
2021/04/08 08:08:07;;;;;;;9.77;6.00;;;6.70;69.50;;;;;;5051745;28;20522;-79
2021/04/08 08:10:34;;;;;;;6.72;5.15;;;6.90;67.50;;;;;;5053463;28;20467;-79
2021/04/08 08:12:59;;;;;;;10.82;6.15;;;7.00;63.10;;;;;;5055506;28;20028;-80
2021/04/08 08:15:27;;;;;;;6.43;5.50;;;7.10;63.20;;;;;;5055443;28;20116;-79
2021/04/08 08:17:55;;;;;;;7.20;6.15;;;7.20;60.50;;;;;;5055544;28;20031;-79
2021/04/08 08:20:21;;;;;;;9.65;6.38;;;7.30;58.90;;;;;;5055886;28;20120;-80
2021/04/08 08:22:49;;;;;;;7.82;5.75;;;7.30;57.60;;;;;;5055671;28;20479;-79
2021/04/08 08:25:21;;;;;;;7.78;6.20;;;7.30;55.90;;;;;;5053162;28;20055;-79
2021/04/08 08:27:50;;;;;;;15.63;10.05;;;7.30;57.00;;;;;;5053283;28;20036;-79
2021/04/08 08:30:18;;;;;;;14.60;8.15;;;7.40;57.30;;;;;;5053091;28;20041;-79
2021/04/08 08:33:23;;;;;;;10.07;6.93;;;7.50;58.10;;;;;;5053190;28;20037;-80
2021/04/08 08:35:48;;;;;;;8.20;5.88;;;7.50;58.50;;;;;;4996076;28;20032;-79
2021/04/08 08:38:19;;;;;;;10.93;6.85;;;7.60;59.10;;;;;;5042094;28;20037;-79
2021/04/08 08:40:46;;;;;;;15.13;8.82;;;7.60;58.20;;;;;;5053143;28;20033;-79
2021/04/08 08:43:14;;;;;;;13.85;7.78;;;7.60;58.50;;;;;;5053048;28;20025;-79
2021/04/08 08:45:41;;;;;;;11.88;7.47;;;7.60;57.60;;;;;;5053003;28;20075;-79
2021/04/08 08:48:17;;;;;;;10.20;7.38;;;7.60;58.10;;;;;;5052817;28;20025;-80
2021/04/08 08:50:44;;;;;;;7.80;5.55;;;7.60;54.80;;;;;;5053207;28;20031;-79
2021/04/08 08:53:11;;;;;;;10.93;6.10;;;7.70;55.20;;;;;;5052847;28;20029;-79
2021/04/08 08:55:38;;;;;;;13.00;7.30;;;7.70;55.10;;;;;;5054164;28;20031;-80
2021/04/08 08:58:05;;;;;;;10.15;7.10;;;7.70;55.60;;;;;;5053043;28;20055;-80
2021/04/08 09:00:32;;;;;;;10.45;6.32;;;7.70;54.90;;;;;;5052673;28;20044;-79
2021/04/08 09:02:59;;;;;;;17.27;9.85;;;7.60;55.90;;;;;;5052297;28;20052;-80
2021/04/08 09:05:30;;;;;;;18.00;8.27;;;7.70;55.00;;;;;;5052527;28;20032;-80
2021/04/08 09:08:07;;;;;;;8.27;5.97;;;7.60;56.40;;;;;;5052693;28;20032;-79
2021/04/08 09:10:37;;;;;;;9.77;7.57;;;7.60;56.30;;;;;;5052548;28;20045;-79
2021/04/08 09:13:05;;;;;;;8.45;6.57;;;7.70;55.70;;;;;;5052849;28;20024;-80
2021/04/08 09:15:31;;;;;;;7.57;6.28;;;7.80;52.10;;;;;;5052739;28;20040;-79
2021/04/08 09:17:59;;;;;;;7.78;5.70;;;7.80;52.70;;;;;;5052589;28;20379;-80
2021/04/08 09:20:26;;;;;;;8.98;6.05;;;7.80;51.70;;;;;;5053782;28;20139;-80
2021/04/08 09:22:53;;;;;;;9.15;7.05;;;7.80;52.40;;;;;;5053101;28;20417;-79
2021/04/08 09:25:21;;;;;;;9.35;6.70;;;7.80;52.50;;;;;;5055549;28;20078;-80
2021/04/08 09:27:52;;;;;;;12.23;7.05;;;7.70;52.30;;;;;;5054010;28;20017;-80
2021/04/08 09:30:41;;;;;;;;;;;7.70;52.80;;;;;;5054243;28;20052;-80
2021/04/08 09:33:07;;;;;;;10.07;7.47;;;7.50;51.50;;;;;;5053827;28;20273;-80
2021/04/08 09:35:33;;;;;;;11.27;7.72;;;7.50;52.70;;;;;;5054013;28;20025;-80
2021/04/08 09:38:02;;;;;;;10.95;8.05;;;7.40;55.10;;;;;;5053602;28;20021;-80
2021/04/08 09:40:45;;;;;;;31.17;10.98;;;7.50;56.80;;;;;;5053962;28;20029;-79
2021/04/08 09:43:22;;;;;;;15.60;8.27;;;7.60;57.10;;;;;;5054039;28;20060;-81
2021/04/08 09:45:51;;;;;;;14.43;8.23;;;7.70;56.50;;;;;;5053636;28;20379;-80
2021/04/08 09:48:22;;;;;;;13.07;8.95;;;7.60;57.50;;;;;;5053475;28;20024;-79
2021/04/08 09:51:09;;;;;;;35.72;20.20;;;7.70;57.90;;;;;;5053771;28;20028;-80
2021/04/08 09:53:37;;;;;;;11.85;7.97;;;7.60;57.70;;;;;;5053442;28;20467;-79
2021/04/08 09:56:05;;;;;;;20.17;9.40;;;7.50;56.90;;;;;;5053347;28;20053;-79
2021/04/08 09:58:34;;;;;;;12.82;8.65;;;7.40;58.00;;;;;;5053415;28;20048;-79
2021/04/08 10:01:03;;;;;;;15.80;9.52;;;7.30;58.80;;;;;;5053381;28;20029;-78
2021/04/08 10:03:36;;;;;;;14.23;9.10;;;7.30;60.80;;;;;;5053304;28;20045;-79
2021/04/08 10:06:24;;;;;;;12.63;7.72;;;7.30;65.20;;;;;;5053102;28;20164;-79
2021/04/08 10:08:51;;;;;;;10.68;7.97;;;7.50;62.50;;;;;;5053694;28;20185;-78
2021/04/08 10:11:29;;;;;;;13.63;8.38;;;7.70;61.60;;;;;;5053043;28;20028;-79
2021/04/08 10:13:55;;;;;;;10.27;7.63;;;7.90;61.50;;;;;;5053148;28;20060;-79
2021/04/08 10:16:26;;;;;;;10.20;7.35;;;8.20;58.30;;;;;;5054589;28;20039;-78
2021/04/08 10:18:59;;;;;;;17.08;7.70;;;8.30;56.10;;;;;;5053710;28;20029;-78
2021/04/08 10:21:26;;;;;;;10.63;7.80;;;8.50;56.70;;;;;;5053143;28;20029;-78
2021/04/08 10:23:53;;;;;;;10.90;8.10;;;8.60;54.70;;;;;;5051236;28;20052;-78
2021/04/08 10:26:24;;;;;;;9.80;8.15;;;8.60;56.20;;;;;;5050960;28;20497;-79
2021/04/08 10:28:56;;;;;;;13.95;9.73;;;8.50;57.10;;;;;;5051506;28;20051;-79
2021/04/08 10:31:28;;;;;;;16.30;10.32;;;8.50;57.40;;;;;;5050995;28;20024;-79
2021/04/08 10:34:01;;;;;;;17.70;12.10;;;8.50;58.40;;;;;;5051004;28;20505;-79
2021/04/08 10:36:38;;;;;;;13.20;9.82;;;8.50;61.50;;;;;;5051088;28;20029;-79
2021/04/08 10:39:13;;;;;;;15.88;9.20;;;8.60;58.90;;;;;;5050741;28;20036;-78
2021/04/08 10:41:59;;;;;;;26.95;10.07;;;8.70;58.00;;;;;;5050971;28;20059;-79
2021/04/08 10:44:41;;;;;;;17.83;8.93;;;8.60;60.20;;;;;;5050608;28;20174;-80
2021/04/08 10:47:06;;;;;;;19.25;7.82;;;8.70;59.90;;;;;;5050633;28;20167;-79
2021/04/08 10:49:50;;;;;;;9.52;7.15;;;8.80;58.60;;;;;;5051958;28;20100;-79
2021/04/08 10:52:22;;;;;;;8.10;6.45;;;8.70;57.90;;;;;;5051993;28;20025;-78
2021/04/08 10:54:54;;;;;;;11.13;7.10;;;8.90;58.50;;;;;;5050707;28;20021;-79
2021/04/08 10:57:22;;;;;;;10.10;6.97;;;9.10;58.20;;;;;;5050908;28;20036;-79
2021/04/08 10:59:48;;;;;;;10.63;6.60;;;9.30;58.20;;;;;;5050903;28;20066;-82
2021/04/08 11:02:21;;;;;;;6.55;5.43;;;9.40;55.00;;;;;;5050262;28;20056;-78
2021/04/08 11:04:48;;;;;;;8.00;5.70;;;9.40;53.40;;;;;;5050822;28;20032;-79
2021/04/08 11:07:13;;;;;;;8.38;6.43;;;9.30;54.00;;;;;;5051008;28;20028;-79
2021/04/08 11:09:39;;;;;;;8.20;6.00;;;9.00;55.40;;;;;;5050635;28;20475;-79
2021/04/08 11:12:21;;;;;;;8.02;5.82;;;8.80;56.80;;;;;;5050830;28;20090;-79
2021/04/08 11:14:54;;;;;;;10.35;6.53;;;8.60;59.00;;;;;;5050367;28;20459;-78
2021/04/08 11:17:22;;;;;;;8.35;5.80;;;8.40;57.40;;;;;;5051799;28;20108;-80
2021/04/08 11:19:49;;;;;;;7.45;6.18;;;8.20;57.50;;;;;;5050309;28;20108;-79
2021/04/08 11:22:17;;;;;;;8.73;5.38;;;8.00;59.20;;;;;;5050492;28;20467;-79
2021/04/08 11:24:45;;;;;;;11.80;5.88;;;8.10;59.00;;;;;;5052113;28;20029;-79
2021/04/08 11:27:11;;;;;;;8.50;5.10;;;8.10;55.40;;;;;;5053586;28;20025;-79
2021/04/08 11:29:36;;;;;;;7.63;4.88;;;8.10;53.00;;;;;;5052046;28;20017;-80
2021/04/08 11:32:12;;;;;;;9.73;5.32;;;8.10;52.40;;;;;;5052151;28;20079;-81
2021/04/08 11:34:45;;;;;;;9.60;5.30;;;8.10;58.30;;;;;;5052151;28;20017;-81
2021/04/08 11:37:13;;;;;;;9.43;5.57;;;7.80;60.90;;;;;;5052016;28;20479;-80
2021/04/08 11:39:39;;;;;;;13.85;5.57;;;7.70;63.40;;;;;;5051591;28;20031;-83
2021/04/08 11:42:15;;;;;;;5.80;4.47;;;7.50;63.60;;;;;;5052213;28;20028;-81
2021/04/08 11:44:42;;;;;;;8.00;4.38;;;7.40;62.30;;;;;;5053700;28;20472;-80
2021/04/08 11:47:12;;;;;;;10.85;6.75;;;7.20;62.90;;;;;;5056090;28;20463;-81
2021/04/08 11:49:43;;;;;;;9.63;5.32;;;7.10;63.80;;;;;;5055959;28;20078;-80
2021/04/08 11:52:11;;;;;;;12.48;7.85;;;7.10;64.40;;;;;;5057168;28;20370;-80
2021/04/08 11:55:05;;;;;;;22.20;13.05;;;7.10;64.20;;;;;;5055784;28;20029;-81
2021/04/08 11:57:32;;;;;;;11.23;6.53;;;7.10;66.90;;;;;;5056014;28;20060;-81
2021/04/08 12:00:01;;;;;;;19.17;10.23;;;7.00;67.30;;;;;;5055585;28;20025;-80
2021/04/08 12:02:29;;;;;;;21.10;10.73;;;7.00;68.40;;;;;;5055332;28;20136;-80
2021/04/08 12:04:54;;;;;;;16.73;5.97;;;7.00;67.30;;;;;;5057869;28;20077;-80
2021/04/08 12:07:21;;;;;;;14.93;6.80;;;6.90;68.00;;;;;;5059454;28;20029;-80
2021/04/08 12:09:49;;;;;;;16.00;6.90;;;7.00;68.00;;;;;;5057225;28;20096;-80
2021/04/08 12:12:15;;;;;;;16.83;9.75;;;7.00;68.00;;;;;;5055652;28;20053;-81
2021/04/08 12:15:06;;;;;;;9.93;6.90;;;7.10;69.40;;;;;;5055646;28;20018;-80
2021/04/08 12:17:33;;;;;;;9.48;5.05;;;7.20;72.70;;;;;;5056766;28;20044;-80
2021/04/08 12:20:19;;;;;;;7.22;4.22;;;7.40;70.50;;;;;;5055426;28;20028;-80
2021/04/08 12:22:45;;;;;;;9.07;6.40;;;7.40;69.40;;;;;;5054430;28;20032;-80
2021/04/08 12:25:13;;;;;;;6.05;4.30;;;7.30;69.90;;;;;;5052730;28;20025;-79
2021/04/08 12:27:39;;;;;;;14.25;7.50;;;7.20;70.90;;;;;;5053805;28;20035;-80
2021/04/08 12:30:07;;;;;;;7.78;5.03;;;7.20;73.20;;;;;;5053175;28;20052;-81
2021/04/08 12:32:33;;;;;;;8.40;5.63;;;7.30;72.90;;;;;;5051963;28;20029;-80
2021/04/08 12:34:59;;;;;;;22.23;8.48;;;7.40;72.00;;;;;;5051625;28;20418;-80
2021/04/08 12:37:26;;;;;;;7.45;5.07;;;7.50;72.30;;;;;;5053095;28;20078;-80
2021/04/08 12:39:52;;;;;;;18.17;9.63;;;7.70;70.90;;;;;;5052601;28;20520;-80
2021/04/08 12:42:19;;;;;;;9.02;6.13;;;7.90;71.60;;;;;;5052882;28;20082;-80
2021/04/08 12:44:45;;;;;;;9.10;6.72;;;8.20;71.40;;;;;;5052004;28;20108;-78
2021/04/08 12:47:12;;;;;;;10.15;7.60;;;8.60;72.90;;;;;;5053021;28;20539;-78
2021/04/08 12:49:37;;;;;;;10.38;7.05;;;9.20;72.20;;;;;;5052941;28;20029;-79
2021/04/08 12:52:03;;;;;;;9.02;6.88;;;9.90;71.00;;;;;;5052558;28;20031;-79
2021/04/08 12:54:33;;;;;;;14.30;11.13;;;10.60;65.30;;;;;;5052644;28;20078;-79